»·PEaware :: N1940F KOSH-KOSH

N1940F :: KOSH-KOSH

FLIGHT INFORMATION

Flight Status: Arrived
Operator: Privately registered:
United States
More flights under this callsign
Pilot: Pratham R. (19019)
Aircraft: CESSNA 172 SKYHAWK
(C172)
More flights by this aircraft type
Origin: KOSH Wittman Regl
United States
Destination: KOSH Wittman Regl
United States
More flights between these airports :: More routes between these airports
Route: null
File this flight plan on PilotEdge
Remarks:
Altitude:
(Current/Filed)
null
Speed:
(Current/Filed)
0kts
Departed: 25-Jul-20 01:24 PM
Arrived: 25-Jul-20 02:29 PM
Distance/Time
Traveled:
0nm/1:05
Distance/Time
To Go:
Arrived

Flight Plot

Page will automatically refresh every two minutes.

Flight plan parsing failed; only flown route is shown


Map Options




Map Legend


Flown Route
Filed Route
Departure Airport
Arrival Airport
Navaid (VOR, NDB)
Fix

Horizontal Profiles

Position Reports

Time Latitude Longitude Heading Altitude Ground
Speed
25-Jul-20 13:23 43.176360 -88.331362 329 4899ft 79kts
25-Jul-20 13:24 43.198209 -88.347397 331 5235ft 97kts
25-Jul-20 13:25 43.222841 -88.365932 331 5546ft 103kts
25-Jul-20 13:26 43.248013 -88.385289 339 5864ft 102kts
25-Jul-20 13:27 43.271886 -88.405230 333 6156ft 106kts
25-Jul-20 13:28 43.298299 -88.424392 331 6428ft 102kts
25-Jul-20 13:29 43.314486 -88.452517 287 6480ft 104kts
25-Jul-20 13:30 43.322615 -88.488327 292 6502ft 95kts
25-Jul-20 13:31 43.345424 -88.506301 334 6511ft 102kts
25-Jul-20 13:32 43.370050 -88.528869 311 6505ft 111kts
25-Jul-20 13:33 43.390475 -88.561248 316 6503ft 112kts
25-Jul-20 13:34 43.412882 -88.591105 316 6504ft 112kts
25-Jul-20 13:35 43.432968 -88.616678 320 6504ft 112kts
25-Jul-20 13:36 43.456932 -88.644212 320 6504ft 112kts
25-Jul-20 13:37 43.482569 -88.667295 329 6504ft 112kts
25-Jul-20 13:38 43.509546 -88.689246 329 6504ft 112kts
25-Jul-20 13:38 43.531949 -88.707400 329 6504ft 112kts
25-Jul-20 13:40 43.563365 -88.732744 329 6504ft 112kts
25-Jul-20 13:41 43.591387 -88.755565 324 6324ft 124kts
25-Jul-20 13:41 43.615292 -88.777205 327 6032ft 123kts
25-Jul-20 13:43 43.649856 -88.806993 328 5600ft 128kts
25-Jul-20 13:44 43.678886 -88.833156 318 5076ft 114kts
25-Jul-20 13:44 43.696885 -88.859174 313 4653ft 111kts
25-Jul-20 13:45 43.718709 -88.888680 328 4303ft 111kts
25-Jul-20 13:47 43.744350 -88.916204 260 3980ft 108kts
25-Jul-20 13:47 43.741354 -88.950579 287 3705ft 110kts
25-Jul-20 13:49 43.768376 -88.976698 346 3470ft 105kts
25-Jul-20 13:49 43.787713 -88.963446 45 3405ft 96kts
25-Jul-20 13:50 43.806404 -88.934464 43 3476ft 105kts
25-Jul-20 13:51 43.832479 -88.925388 335 3071ft 96kts
25-Jul-20 13:52 43.848517 -88.953386 285 3003ft 91kts
25-Jul-20 13:53 43.847778 -88.988403 253 3076ft 92kts
25-Jul-20 13:54 43.839049 -89.022131 247 3109ft 94kts
25-Jul-20 13:55 43.828926 -89.056193 242 3034ft 93kts
25-Jul-20 13:56 43.811670 -89.082024 213 2989ft 91kts
25-Jul-20 13:57 43.787810 -89.089526 169 2997ft 89kts
25-Jul-20 13:58 43.768656 -89.068878 114 3082ft 90kts
25-Jul-20 13:59 43.770263 -89.033914 74 3042ft 97kts
25-Jul-20 14:00 43.779066 -89.000161 67 3043ft 91kts
25-Jul-20 14:01 43.790049 -88.968375 61 3062ft 91kts
25-Jul-20 14:02 43.803988 -88.938772 51 3073ft 92kts
25-Jul-20 14:03 43.825858 -88.917806 11 2704ft 92kts
25-Jul-20 14:04 43.846421 -88.935972 283 2332ft 99kts
25-Jul-20 14:05 43.846131 -88.973454 257 1861ft 93kts
25-Jul-20 14:06 43.838216 -89.007513 247 1861ft 92kts
25-Jul-20 14:07 43.826678 -89.039581 240 1867ft 91kts
25-Jul-20 14:08 43.812279 -89.069266 230 1879ft 93kts
25-Jul-20 14:09 43.789183 -89.074312 156 1846ft 92kts
25-Jul-20 14:10 43.771844 -89.051737 88 1810ft 86kts
25-Jul-20 14:11 43.781911 -89.021190 64 1857ft 92kts
25-Jul-20 14:12 43.794088 -88.991622 58 1805ft 83kts
25-Jul-20 14:13 43.804348 -88.962876 65 1901ft 87kts
25-Jul-20 14:14 43.815643 -88.932030 54 1823ft 86kts
25-Jul-20 14:15 43.829553 -88.904953 71 1881ft 86kts
25-Jul-20 14:16 43.836267 -88.872816 63 1865ft 85kts
25-Jul-20 14:17 43.847982 -88.843504 60 1828ft 87kts
25-Jul-20 14:18 43.861230 -88.815343 59 1828ft 89kts
25-Jul-20 14:19 43.876008 -88.786891 51 1774ft 90kts
25-Jul-20 14:20 43.891919 -88.759878 47 1861ft 92kts
25-Jul-20 14:21 43.909887 -88.733351 41 1823ft 95kts
25-Jul-20 14:22 43.929288 -88.709389 45 1784ft 93kts
25-Jul-20 14:23 43.943822 -88.679801 42 1830ft 94kts
25-Jul-20 14:24 43.952794 -88.648350 90 1864ft 93kts
25-Jul-20 14:25 43.953130 -88.612682 93 1805ft 93kts
25-Jul-20 14:26 43.952602 -88.577039 96 1568ft 89kts
25-Jul-20 14:27 43.966750 -88.554594 3 866ft 72kts
25-Jul-20 14:28 43.978771 -88.554431 359 785ft 29kts
25-Jul-20 14:29 43.987001 -88.554346 359 780ft 16kts
25-Jul-20 14:30 43.987964 -88.555659 287 780ft 14kts
25-Jul-20 14:31 43.987972 -88.556815 169 781ft 0kts
25-Jul-20 14:32 43.987972 -88.556815 169 781ft 0kts
25-Jul-20 14:33 43.987972 -88.556815 169 781ft 0kts
25-Jul-20 14:34 43.987972 -88.556815 169 781ft 0kts
25-Jul-20 14:35 43.987972 -88.556815 169 781ft 0kts
25-Jul-20 14:36 43.987972 -88.556815 169 781ft 0kts
25-Jul-20 14:37 43.987972 -88.556815 169 781ft 0kts
25-Jul-20 14:38 43.987972 -88.556815 169 781ft 0kts
25-Jul-20 14:39 43.987972 -88.556815 169 781ft 0kts
25-Jul-20 14:40 43.987972 -88.556815 169 781ft 0kts
25-Jul-20 14:41 43.987972 -88.556815 169 781ft 0kts
25-Jul-20 14:42 43.987972 -88.556815 169 781ft 0kts
25-Jul-20 14:43 43.987972 -88.556815 169 781ft 0kts

Navigation Log

Ident Type
Flight plan parsing failed, navigation log unavailable